createdAt,value
2022-08-05T00:01:28.478Z,5.43
2022-08-05T00:06:29.344Z,7.25
2022-08-05T00:11:34.835Z,5.47
2022-08-05T00:16:52.448Z,6.80
2022-08-05T00:21:50.185Z,7.25
2022-08-05T00:26:50.984Z,5.25
2022-08-05T00:32:11.091Z,11.27
2022-08-05T00:37:12.927Z,11.60
2022-08-05T00:42:32.054Z,7.95
2022-08-05T00:47:53.059Z,12.23
2022-08-05T00:52:46.821Z,3.73
2022-08-05T00:57:58.146Z,6.85
2022-08-05T01:02:56.922Z,8.30
2022-08-05T01:08:31.622Z,4.72
2022-08-05T01:13:27.090Z,6.50
2022-08-05T01:18:29.681Z,3.22
2022-08-05T01:23:54.556Z,7.82
2022-08-05T01:29:04.327Z,8.30
2022-08-05T01:34:12.305Z,4.38
2022-08-05T01:39:13.233Z,6.03
2022-08-05T01:44:11.418Z,11.88
2022-08-05T01:49:23.268Z,6.78
2022-08-05T01:54:25.553Z,6.32
2022-08-05T01:59:26.552Z,5.03
2022-08-05T02:04:26.475Z,3.88
2022-08-05T02:09:22.891Z,7.93
2022-08-05T02:14:39.494Z,5.40
2022-08-05T02:19:49.032Z,5.57
2022-08-05T02:24:51.334Z,3.88
2022-08-05T02:29:59.542Z,7.35
2022-08-05T02:35:02.020Z,3.88
2022-08-05T02:40:10.585Z,4.85
2022-08-05T02:45:09.946Z,5.95
2022-08-05T02:50:08.719Z,7.55
2022-08-05T02:55:10.829Z,5.05
2022-08-05T03:00:12.439Z,6.65
2022-08-05T03:05:11.684Z,8.63
2022-08-05T03:10:09.439Z,10.07
2022-08-05T03:15:09.162Z,16.27
2022-08-05T03:20:06.695Z,17.10
2022-08-05T03:25:32.401Z,10.52
2022-08-05T03:30:20.818Z,12.97
2022-08-05T03:35:28.550Z,16.95
2022-08-05T03:40:32.012Z,19.67
2022-08-05T03:45:29.688Z,17.15
2022-08-05T03:52:37.667Z,18.20
2022-08-05T03:56:42.003Z,18.42
2022-08-05T04:01:42.363Z,25.65
2022-08-05T04:06:48.015Z,22.27
2022-08-05T04:11:50.725Z,25.65
2022-08-05T04:16:49.097Z,21.83
2022-08-05T04:22:08.236Z,19.55
2022-08-05T04:27:01.905Z,19.50
2022-08-05T04:31:58.918Z,18.23
2022-08-05T04:36:57.070Z,23.77
2022-08-05T04:41:53.401Z,33.97
2022-08-05T04:46:51.746Z,23.75
2022-08-05T04:51:49.291Z,19.60
2022-08-05T04:56:59.720Z,19.52
2022-08-05T05:02:07.693Z,23.77
2022-08-05T05:07:17.283Z,27.42
2022-08-05T05:12:13.690Z,26.95
2022-08-05T05:17:11.537Z,24.08
2022-08-05T05:22:24.258Z,23.88
2022-08-05T05:27:22.521Z,27.98
2022-08-05T05:32:19.338Z,25.13
2022-08-05T05:37:17.660Z,31.80
2022-08-05T05:42:14.293Z,33.45
2022-08-05T05:47:13.244Z,28.35
2022-08-05T05:52:28.647Z,33.67
2022-08-05T05:57:42.750Z,30.58
2022-08-05T06:02:46.189Z,31.70
2022-08-05T06:07:43.203Z,25.50
2022-08-05T06:12:57.638Z,30.88
2022-08-05T06:17:54.432Z,36.10
2022-08-05T06:22:51.278Z,31.77
2022-08-05T06:28:12.821Z,25.17
2022-08-05T06:33:04.024Z,28.40
2022-08-05T06:38:04.305Z,33.28
2022-08-05T06:43:07.683Z,25.47
2022-08-05T06:48:52.907Z,24.88
2022-08-05T06:53:40.404Z,25.63
2022-08-05T06:58:36.942Z,22.73
2022-08-05T07:03:34.140Z,23.20
2022-08-05T07:08:30.730Z,24.48
2022-08-05T07:13:57.628Z,19.70
2022-08-05T07:18:54.993Z,19.27
2022-08-05T07:23:52.364Z,19.55
2022-08-05T07:28:50.812Z,20.95
2022-08-05T07:33:47.177Z,15.55
2022-08-05T07:38:44.826Z,14.10
2022-08-05T07:43:41.190Z,11.48
2022-08-05T07:49:01.587Z,16.67
2022-08-05T07:53:55.778Z,15.73
2022-08-05T07:58:57.488Z,17.00
2022-08-05T08:03:55.719Z,19.83
2022-08-05T08:08:53.295Z,18.38
2022-08-05T08:14:00.978Z,13.52
2022-08-05T08:18:57.683Z,16.07
2022-08-05T08:24:02.216Z,14.50
2022-08-05T08:29:22.238Z,13.77
2022-08-05T08:34:18.521Z,11.77
2022-08-05T08:39:18.006Z,19.00
2022-08-05T08:45:23.124Z,14.32
2022-08-05T08:50:07.601Z,17.75
2022-08-05T08:54:56.606Z,18.55
2022-08-05T08:59:56.113Z,18.02
2022-08-05T09:05:16.359Z,15.68
2022-08-05T09:10:09.341Z,17.25
2022-08-05T09:15:06.821Z,13.52
2022-08-05T09:20:05.706Z,14.25
2022-08-05T09:25:14.048Z,10.68
2022-08-05T09:30:23.566Z,9.45
2022-08-05T09:35:26.632Z,9.45
2022-08-05T09:40:36.326Z,12.23
2022-08-05T09:46:07.831Z,11.50
2022-08-05T09:50:58.828Z,15.57
2022-08-05T09:56:04.536Z,10.90
2022-08-05T10:01:14.879Z,10.85
2022-08-05T10:06:14.652Z,14.85
2022-08-05T10:11:16.816Z,12.30
2022-08-05T10:16:37.852Z,12.82
2022-08-05T10:21:40.250Z,12.13
2022-08-05T10:26:49.002Z,12.00
2022-08-05T10:33:01.486Z,12.75
2022-08-05T10:37:04.378Z,10.77
2022-08-05T10:42:22.760Z,12.25
2022-08-05T10:47:33.004Z,10.10
2022-08-05T10:52:59.886Z,5.50
2022-08-05T10:58:11.359Z,8.27
2022-08-05T11:03:25.563Z,7.38
2022-08-05T11:08:38.134Z,6.57
2022-08-05T11:13:55.096Z,4.60
2022-08-05T11:20:15.713Z,5.15
2022-08-05T11:24:50.678Z,5.30
2022-08-05T11:30:00.711Z,5.53
2022-08-05T11:34:57.660Z,4.28
2022-08-05T11:40:00.711Z,8.45
2022-08-05T11:45:05.873Z,8.05
2022-08-05T11:50:20.020Z,6.95
2022-08-05T11:55:16.392Z,6.70
2022-08-05T12:00:38.351Z,6.45
2022-08-05T12:05:39.625Z,3.70
2022-08-05T12:10:46.119Z,6.20
2022-08-05T12:15:50.163Z,3.55
2022-08-05T12:20:46.892Z,5.22
2022-08-05T12:25:53.471Z,5.53
2022-08-05T12:30:49.896Z,4.38
2022-08-05T12:35:46.383Z,5.60
2022-08-05T12:40:44.565Z,3.17
2022-08-05T12:45:54.122Z,3.97
2022-08-05T12:52:10.672Z,2.67
2022-08-05T12:56:35.055Z,6.45
2022-08-05T13:02:01.886Z,2.55
2022-08-05T13:06:51.702Z,7.65
2022-08-05T13:12:02.683Z,5.95
2022-08-05T13:16:59.933Z,2.30
2022-08-05T13:21:56.725Z,4.00
2022-08-05T13:26:53.279Z,2.92
2022-08-05T13:32:03.979Z,4.07
2022-08-05T13:37:01.517Z,2.75
2022-08-05T13:41:57.876Z,2.55
2022-08-05T13:47:04.687Z,2.75
2022-08-05T13:52:19.532Z,3.78
2022-08-05T13:57:26.076Z,1.48
2022-08-05T14:02:42.169Z,4.50
2022-08-05T14:08:01.041Z,8.07
2022-08-05T14:12:57.557Z,2.53
2022-08-05T14:17:57.749Z,5.10
2022-08-05T14:22:57.914Z,5.07
2022-08-05T14:27:54.500Z,3.83
2022-08-05T14:32:51.263Z,2.17
2022-08-05T14:37:52.104Z,3.43
2022-08-05T14:42:50.432Z,4.60
2022-08-05T14:48:02.496Z,1.75
2022-08-05T14:53:01.849Z,2.80
2022-08-05T14:57:58.552Z,2.13
2022-08-05T15:02:55.220Z,4.00
2022-08-05T15:08:10.880Z,1.97
2022-08-05T15:13:08.349Z,4.15
2022-08-05T15:18:06.727Z,3.00
2022-08-05T15:23:11.107Z,2.90
2022-08-05T15:28:09.041Z,3.20
2022-08-05T15:33:11.670Z,6.47
2022-08-05T15:38:34.708Z,4.32
2022-08-05T15:43:24.669Z,1.88
2022-08-05T15:48:21.034Z,1.45
2022-08-05T15:53:17.516Z,2.15
2022-08-05T15:58:17.633Z,2.88
2022-08-05T16:03:13.973Z,1.55
2022-08-05T16:08:11.370Z,4.38
2022-08-05T16:13:12.531Z,4.18
2022-08-05T16:18:15.728Z,3.20
2022-08-05T16:23:14.012Z,2.53
2022-08-05T16:28:11.714Z,1.38
2022-08-05T16:33:08.113Z,0.40
2022-08-05T16:38:18.860Z,2.30
2022-08-05T16:43:23.480Z,1.05
2022-08-05T16:48:25.591Z,4.20
2022-08-05T16:53:32.257Z,0.70
2022-08-05T16:58:46.031Z,1.90
2022-08-05T17:03:42.438Z,2.65
2022-08-05T17:08:53.927Z,1.65
2022-08-05T17:13:51.157Z,5.25
2022-08-05T17:18:56.786Z,1.27
2022-08-05T17:24:05.809Z,1.38
2022-08-05T17:29:10.052Z,4.32
2022-08-05T17:34:06.675Z,1.20
2022-08-05T17:39:05.198Z,0.30
2022-08-05T17:44:32.324Z,0.22
2022-08-05T17:49:28.947Z,0.73
2022-08-05T17:54:45.272Z,0.68
2022-08-05T17:59:41.688Z,1.17
2022-08-05T18:10:02.093Z,1.38
2022-08-05T18:15:06.965Z,2.78
2022-08-05T18:20:06.425Z,1.33
2022-08-05T18:25:11.645Z,1.25
2022-08-05T18:30:13.649Z,4.13
2022-08-05T18:35:11.542Z,1.10
2022-08-05T18:41:53.154Z,1.33
2022-08-05T18:45:40.896Z,2.13
2022-08-05T18:50:56.981Z,0.57
2022-08-05T18:55:58.203Z,0.95
2022-08-05T19:06:12.843Z,0.73
2022-08-05T19:11:09.599Z,1.13
2022-08-05T19:16:22.234Z,1.75
2022-08-05T19:21:26.156Z,2.45
2022-08-05T19:26:25.783Z,0.50
2022-08-05T19:31:22.962Z,2.08
2022-08-05T19:36:19.531Z,2.17
2022-08-05T19:41:16.232Z,0.40
2022-08-05T19:46:29.460Z,1.20
2022-08-05T19:51:56.602Z,0.93
2022-08-05T19:56:43.996Z,0.87
2022-08-05T20:01:40.435Z,1.75
2022-08-05T20:06:45.959Z,0.65
2022-08-05T20:11:48.217Z,0.45
2022-08-05T20:16:45.092Z,3.95
2022-08-05T20:21:41.471Z,1.13
2022-08-05T20:26:39.876Z,0.60
2022-08-05T20:31:52.148Z,4.50
2022-08-05T20:36:48.786Z,1.35
2022-08-05T20:41:49.162Z,3.58
2022-08-05T20:46:45.524Z,2.00
2022-08-05T20:51:42.560Z,3.17
2022-08-05T20:56:42.151Z,2.63
2022-08-05T21:01:39.207Z,2.15
2022-08-05T21:06:36.439Z,1.63
2022-08-05T21:12:10.553Z,1.55
2022-08-05T21:16:49.276Z,2.85
2022-08-05T21:21:50.655Z,1.23
2022-08-05T21:26:58.419Z,6.85
2022-08-05T21:31:55.499Z,2.53
2022-08-05T21:36:52.148Z,0.70
2022-08-05T21:41:52.619Z,2.45
2022-08-05T21:46:49.369Z,1.55
2022-08-05T21:52:27.113Z,2.83
2022-08-05T21:57:29.587Z,1.60
2022-08-05T22:02:21.098Z,1.15
2022-08-05T22:07:17.484Z,1.40
2022-08-05T22:12:34.469Z,0.98
2022-08-05T22:17:40.592Z,4.00
2022-08-05T22:23:17.072Z,2.35
2022-08-05T22:28:18.283Z,2.38
2022-08-05T22:33:15.657Z,5.63
2022-08-05T22:38:12.676Z,2.30
2022-08-05T22:43:09.136Z,2.35
2022-08-05T22:48:05.719Z,1.10
2022-08-05T22:53:04.244Z,0.93
2022-08-05T22:58:06.287Z,1.73
2022-08-05T23:03:08.056Z,1.05
2022-08-05T23:08:09.796Z,2.85
2022-08-05T23:13:07.833Z,1.90
2022-08-05T23:18:06.151Z,1.73
2022-08-05T23:23:09.024Z,1.48
2022-08-05T23:28:07.565Z,4.05
2022-08-05T23:33:04.131Z,10.80
2022-08-05T23:38:00.506Z,2.88
2022-08-05T23:42:56.829Z,2.60
2022-08-05T23:47:53.901Z,2.75
2022-08-05T23:52:55.912Z,3.65
2022-08-05T23:57:52.783Z,1.58
